Terminal Aerodrome Forecast
Issued by NWS

Home | Current Version | Previous Version | Text Only | Print | Product List | Glossary On
Versions: 1 2 3 4 5 6 7 8 9 10 11 12 13 14 15 16
483
FTUS44 KLZK 291123
TAFPBF
TAF
KPBF 291123Z 2912/3012 13008KT P6SM VCSH SCT020 BKN040
     FM291600 16010G18KT P6SM BKN025 OVC050
     FM292300 16010G20KT P6SM VCTS SCT025 BKN050CB
     FM300300 16012G22KT 5SM -TSRA BR BKN025CB OVC060 PROB30
      3003/3009 1SM TSRA BR BKN008 OVC015CB
     FM301000 21008G16KT P6SM SCT025 BKN080=

USA.gov is the U.S. government's official web portal to all federal, state and local government web resources and services.